Terminal Aerodrome Forecast
Issued by NWS

Home | Current Version | Previous Version | Text Only | Print | Product List | Glossary On
Versions: 1 2 3 4 5 6 7 8 9 10 11 12 13 14 15 16 17 18 19 20 21 22 23 24 25 26 27 28 29 30 31 32 33 34 35 36 37 38 39 40 41 42 43 44 45 46 47 48 49 50
000
FTUS45 KBOU 302335
TAFAPA
TAF
KAPA 302335Z 0100/0124 36016KT 3SM -SN BR BKN006 OVC015
      TEMPO 0100/0101 1SM -SN BR BKN003 OVC009
     FM010100 34014KT 5SM -SN BR BKN007 OVC020
      TEMPO 0102/0104 2SM -SN BR BKN005 OVC012
     FM010400 33012KT 6SM -SN BR BKN008 OVC020
     FM011200 34012KT 3SM -SN BR BKN007 OVC017
     FM011700 03012KT P6SM VCSH SCT012 OVC020
     FM012300 06008KT P6SM SCT015 BKN030=

USA.gov is the U.S. government's official web portal to all federal, state and local government web resources and services.